CheckWX is a tool to help pilots better visualize weather data.  It is not intended as a substitute for an official pre-flight weather briefing.

12:34:33 UTC

24J METAR
Suwannee County Airport
Live Oak, Florida, USA
Current

20 mins ago

K24J 221215Z AUTO 00000KT 1 1/4SM BR OVC003 20/20 A3016 RMK A01
Observed
Feb-22 @ 12:15 UTC
Visibility
1 1/4 SM
Flight Rules
LIFR
Conditions
Mist
Cloud Levels
  • Overcast at 300' AGL
Temperature
20°C / 68°F
Dewpoint
20°C / 68°F
Humidity
100%
Altimeter
30.16" Hg
Pressure
1021.32 hPa
Previous

40 mins ago

K24J 221155Z AUTO 00000KT 1 1/4SM BR OVC003 20/20 A3015 RMK A01
Observed
Feb-22 @ 11:55 UTC
Visibility
1 1/4 SM
Flight Rules
LIFR
Conditions
Mist
Cloud Levels
  • Overcast at 300' AGL
Temperature
20°C / 68°F
Dewpoint
20°C / 68°F
Humidity
100%
Altimeter
30.15" Hg
Pressure
1021.02 hPa
Previous

60 mins ago

K24J 221135Z AUTO 00000KT 1 1/2SM BR OVC003 20/20 A3015 RMK A01
Observed
Feb-22 @ 11:35 UTC
Visibility
1 1/2 SM
Flight Rules
LIFR
Conditions
Mist
Cloud Levels
  • Overcast at 300' AGL
Temperature
20°C / 68°F
Dewpoint
20°C / 68°F
Humidity
100%
Altimeter
30.15" Hg
Pressure
1021.02 hPa